createdAt,value
2017-09-14T00:02:35.472Z,0
2017-09-14T00:12:35.410Z,0
2017-09-14T00:22:35.498Z,0
2017-09-14T00:32:35.451Z,0
2017-09-14T00:42:35.371Z,0
2017-09-14T00:52:35.391Z,0
2017-09-14T01:02:35.370Z,0
2017-09-14T01:12:35.314Z,0
2017-09-14T01:22:35.432Z,0
2017-09-14T01:32:35.385Z,0
2017-09-14T01:42:35.423Z,0
2017-09-14T01:52:35.393Z,0
2017-09-14T02:02:35.368Z,0
2017-09-14T02:12:35.407Z,0
2017-09-14T02:22:35.394Z,0
2017-09-14T02:32:35.426Z,0
2017-09-14T02:42:35.397Z,0
2017-09-14T02:52:35.359Z,0
2017-09-14T03:02:35.430Z,0
2017-09-14T03:12:35.370Z,0
2017-09-14T03:22:35.316Z,0
2017-09-14T03:32:35.373Z,0
2017-09-14T03:42:35.402Z,0
2017-09-14T03:52:35.412Z,0
2017-09-14T04:02:35.408Z,0
2017-09-14T04:12:35.378Z,0
2017-09-14T04:22:35.426Z,0
2017-09-14T04:32:35.359Z,4
2017-09-14T04:42:35.338Z,16
2017-09-14T04:52:35.393Z,80
2017-09-14T05:02:35.402Z,220
2017-09-14T05:12:35.458Z,452
2017-09-14T05:22:35.386Z,884
2017-09-14T05:32:35.303Z,2180
2017-09-14T05:42:35.399Z,3224
2017-09-14T05:52:35.351Z,2576
2017-09-14T06:02:35.314Z,1164
2017-09-14T06:12:35.399Z,1860
2017-09-14T06:22:35.373Z,3420
2017-09-14T06:32:35.422Z,5036
2017-09-14T06:42:35.357Z,4164
2017-09-14T06:52:35.300Z,3232
2017-09-14T07:02:35.394Z,4584
2017-09-14T07:12:35.358Z,3084
2017-09-14T07:22:35.462Z,2744
2017-09-14T07:32:35.387Z,2020
2017-09-14T07:42:35.484Z,1324
2017-09-14T07:52:35.565Z,2752
2017-09-14T08:02:35.419Z,3852
2017-09-14T08:12:36.609Z,8180
2017-09-14T08:22:35.464Z,5236
2017-09-14T08:32:35.451Z,5240
2017-09-14T08:42:35.513Z,3388
2017-09-14T08:52:35.547Z,4608
2017-09-14T09:02:35.380Z,3904
2017-09-14T09:12:35.828Z,3760
2017-09-14T09:22:37.130Z,6184
2017-09-14T09:32:35.502Z,5152
2017-09-14T09:42:35.413Z,8184
2017-09-14T09:52:35.387Z,16516
2017-09-14T10:02:36.219Z,9612
2017-09-14T10:12:36.499Z,4304
2017-09-14T10:22:35.587Z,3644
2017-09-14T10:32:36.270Z,3448
2017-09-14T10:42:35.886Z,3788
2017-09-14T10:52:35.425Z,4084
2017-09-14T11:02:36.555Z,5400
2017-09-14T11:12:38.774Z,11656
2017-09-14T11:22:41.882Z,5840
2017-09-14T11:32:35.418Z,6564
2017-09-14T11:42:35.425Z,9640
2017-09-14T11:52:35.408Z,7720
2017-09-14T12:02:35.377Z,6000
2017-09-14T12:12:35.393Z,11148
2017-09-14T12:22:35.381Z,16920
2017-09-14T12:32:35.457Z,10592
2017-09-14T12:42:36.407Z,14600
2017-09-14T12:52:35.476Z,13904
2017-09-14T13:02:35.419Z,10104
2017-09-14T13:12:35.365Z,14812
2017-09-14T13:22:36.372Z,8316
2017-09-14T13:32:35.429Z,2660
2017-09-14T13:42:35.387Z,1292
2017-09-14T13:52:35.425Z,3964
2017-09-14T14:02:35.399Z,4080
2017-09-14T14:12:35.358Z,2920
2017-09-14T14:22:35.371Z,3768
2017-09-14T14:32:35.385Z,5936
2017-09-14T14:42:35.457Z,5244
2017-09-14T14:52:35.400Z,8200
2017-09-14T15:02:35.355Z,2908
2017-09-14T15:12:35.326Z,1144
2017-09-14T15:22:35.357Z,836
2017-09-14T15:32:35.313Z,1444
2017-09-14T15:42:35.322Z,1248
2017-09-14T15:52:35.363Z,988
2017-09-14T16:02:35.334Z,1104
2017-09-14T16:12:35.311Z,1936
2017-09-14T16:22:35.315Z,892
2017-09-14T16:32:35.371Z,572
2017-09-14T16:42:35.363Z,604
2017-09-14T16:52:35.349Z,568
2017-09-14T17:02:35.363Z,692
2017-09-14T17:12:35.357Z,340
2017-09-14T17:22:35.384Z,220
2017-09-14T17:32:35.399Z,96
2017-09-14T17:42:35.371Z,52
2017-09-14T17:52:35.447Z,16
2017-09-14T18:02:35.447Z,4
2017-09-14T18:12:35.453Z,0
2017-09-14T18:22:35.431Z,0
2017-09-14T18:32:35.469Z,0
2017-09-14T18:42:35.565Z,0
2017-09-14T18:52:35.476Z,0
2017-09-14T19:02:35.673Z,0
2017-09-14T19:12:35.450Z,4
2017-09-14T19:22:35.560Z,0
2017-09-14T19:32:35.569Z,0
2017-09-14T19:42:35.578Z,0
2017-09-14T19:52:35.518Z,0
2017-09-14T20:02:36.249Z,0
2017-09-14T20:12:44.188Z,4
2017-09-14T20:22:35.693Z,0
2017-09-14T20:32:35.594Z,0
2017-09-14T20:42:35.568Z,0
2017-09-14T20:52:35.809Z,0
2017-09-14T21:02:35.580Z,0
2017-09-14T21:12:35.677Z,0
2017-09-14T21:22:35.595Z,0
2017-09-14T21:32:35.650Z,0
2017-09-14T21:42:36.482Z,0
2017-09-14T21:52:35.667Z,0
2017-09-14T22:02:35.751Z,0
2017-09-14T22:12:35.704Z,0
2017-09-14T22:22:36.136Z,0
2017-09-14T22:32:36.133Z,0
2017-09-14T22:42:35.771Z,0
2017-09-14T22:52:36.075Z,0
2017-09-14T23:02:35.740Z,0
2017-09-14T23:12:35.714Z,0
2017-09-14T23:22:35.756Z,0
2017-09-14T23:32:35.704Z,0
2017-09-14T23:42:35.789Z,0
2017-09-14T23:52:35.788Z,0
